Time,TemperatureF,DewpointF,PressureIn,WindDirection,WindDirectionDegrees,WindSpeedMPH,WindSpeedGustMPH,Humidity,HourlyPrecipIn,Conditions,Clouds,dailyrainin,SoftwareType,DateUTC
2013-01-13 00:42:00,36.0,34.0,30.29,South,180,26.0,33.0,92,-99.99,,,-99.99,,2013-01-13 09:42:00,
2013-01-13 01:42:00,36.0,34.0,30.29,South,180,26.0,34.0,92,-99.99,,,-99.99,,2013-01-13 10:42:00,
2013-01-13 01:52:00,36.0,34.0,30.29,South,180,26.0,34.0,92,-99.99,,,-99.99,,2013-01-13 10:52:00,
2013-01-13 02:42:00,36.0,34.0,30.29,South,170,28.0,36.0,92,-99.99,,,-99.99,,2013-01-13 11:42:00,
2013-01-13 02:52:00,36.0,34.0,30.29,South,170,28.0,36.0,92,-99.99,,,-99.99,,2013-01-13 11:52:00,
2013-01-13 03:42:00,36.0,34.0,30.29,South,170,28.0,38.0,92,-99.99,,,-99.99,,2013-01-13 12:42:00,
2013-01-13 04:42:00,36.0,34.0,30.27,South,180,31.0,40.0,92,-99.99,,,-99.99,,2013-01-13 13:42:00,
2013-01-13 04:52:00,36.0,34.0,30.27,South,180,31.0,40.0,92,-99.99,,,-99.99,,2013-01-13 13:52:00,
2013-01-13 05:42:00,36.0,34.0,30.28,South,180,32.0,41.0,92,-99.99,,,-99.99,,2013-01-13 14:42:00,
2013-01-13 05:52:00,36.0,34.0,30.28,South,180,32.0,41.0,92,-99.99,,,-99.99,,2013-01-13 14:52:00,
2013-01-13 06:42:00,36.0,34.0,30.25,South,180,33.0,41.0,92,-99.99,,,-99.99,,2013-01-13 15:42:00,
2013-01-13 07:42:00,36.0,34.0,30.26,South,170,31.0,41.0,92,-99.99,,,-99.99,,2013-01-13 16:42:00,
2013-01-13 08:42:00,37.0,34.0,30.26,South,180,32.0,41.0,88,-99.99,,,-99.99,,2013-01-13 17:42:00,
2013-01-13 09:00:00,37.0,34.0,30.26,South,180,32.0,41.0,88,-99.99,,,-99.99,,2013-01-13 18:00:00,
2013-01-13 09:42:00,37.0,34.0,30.26,South,180,32.0,41.0,88,-99.99,,,-99.99,,2013-01-13 18:42:00,
2013-01-13 09:52:00,37.0,34.0,30.26,South,180,32.0,41.0,88,-99.99,,,-99.99,,2013-01-13 18:52:00,
2013-01-13 10:42:00,37.0,35.0,30.25,South,180,33.0,41.0,92,-99.99,,,-99.99,,2013-01-13 19:42:00,
2013-01-13 10:52:00,37.0,35.0,30.25,South,180,33.0,41.0,92,-99.99,,,-99.99,,2013-01-13 19:52:00,
2013-01-13 11:42:00,37.0,35.0,30.24,South,180,33.0,41.0,92,-99.99,,,-99.99,,2013-01-13 20:42:00,
2013-01-13 12:42:00,37.0,35.0,30.25,South,180,31.0,43.0,92,-99.99,,,-99.99,,2013-01-13 21:42:00,
2013-01-13 12:52:00,37.0,35.0,30.25,South,180,31.0,43.0,92,-99.99,,,-99.99,,2013-01-13 21:52:00,
2013-01-13 13:00:00,37.0,35.0,30.26,South,180,28.0,37.0,92,-99.99,,,-99.99,,2013-01-13 22:00:00,
2013-01-13 13:42:00,37.0,35.0,30.26,South,180,28.0,37.0,92,-99.99,,,-99.99,,2013-01-13 22:42:00,
2013-01-13 13:52:00,37.0,35.0,30.26,South,180,28.0,37.0,92,-99.99,,,-99.99,,2013-01-13 22:52:00,
2013-01-13 14:00:00,37.0,35.0,30.24,South,170,31.0,39.0,92,-99.99,,,-99.99,,2013-01-13 23:00:00,
2013-01-13 14:42:00,37.0,35.0,30.24,South,170,31.0,39.0,92,-99.99,,,-99.99,,2013-01-13 23:42:00,
2013-01-13 14:52:00,37.0,35.0,30.24,South,170,31.0,39.0,92,-99.99,,,-99.99,,2013-01-13 23:52:00,
2013-01-13 15:00:00,37.0,35.0,30.22,South,180,32.0,39.0,92,-99.99,,,-99.99,,2013-01-14 00:00:00,
2013-01-13 15:42:00,37.0,35.0,30.22,South,180,32.0,39.0,92,-99.99,,,-99.99,,2013-01-14 00:42:00,
2013-01-13 15:52:00,37.0,35.0,30.22,South,180,32.0,39.0,92,-99.99,,,-99.99,,2013-01-14 00:52:00,
2013-01-13 16:00:00,37.0,35.0,30.21,South,180,32.0,39.0,92,-99.99,,,-99.99,,2013-01-14 01:00:00,
2013-01-13 16:42:00,37.0,35.0,30.21,South,180,32.0,39.0,92,-99.99,,,-99.99,,2013-01-14 01:42:00,
2013-01-13 16:52:00,37.0,35.0,30.21,South,180,32.0,39.0,92,-99.99,,,-99.99,,2013-01-14 01:52:00,
2013-01-13 17:00:00,37.0,36.0,30.22,South,180,28.0,38.0,95,-99.99,,,-99.99,,2013-01-14 02:00:00,
2013-01-13 17:42:00,37.0,36.0,30.22,South,180,28.0,38.0,95,-99.99,,,-99.99,,2013-01-14 02:42:00,
2013-01-13 17:52:00,37.0,36.0,30.22,South,180,28.0,38.0,95,-99.99,,,-99.99,,2013-01-14 02:52:00,
2013-01-13 18:00:00,37.0,36.0,30.20,South,180,29.0,33.0,95,-99.99,,,-99.99,,2013-01-14 03:00:00,
2013-01-13 18:42:00,37.0,36.0,30.20,South,180,29.0,33.0,95,-99.99,,,-99.99,,2013-01-14 03:42:00,
2013-01-13 18:52:00,37.0,36.0,30.20,South,180,29.0,33.0,95,-99.99,,,-99.99,,2013-01-14 03:52:00,
2013-01-13 19:00:00,38.0,36.0,30.18,South,180,30.0,38.0,92,-99.99,,,-99.99,,2013-01-14 04:00:00,
2013-01-13 19:42:00,38.0,36.0,30.18,South,180,30.0,38.0,92,-99.99,,,-99.99,,2013-01-14 04:42:00,
2013-01-13 19:52:00,38.0,36.0,30.18,South,180,30.0,38.0,92,-99.99,,,-99.99,,2013-01-14 04:52:00,
2013-01-13 20:00:00,38.0,36.0,30.19,South,170,28.0,38.0,92,-99.99,,,-99.99,,2013-01-14 05:00:00,
2013-01-13 20:42:00,38.0,36.0,30.19,South,170,28.0,38.0,92,-99.99,,,-99.99,,2013-01-14 05:42:00,
2013-01-13 20:52:00,38.0,36.0,30.19,South,170,28.0,38.0,92,-99.99,,,-99.99,,2013-01-14 05:52:00,
2013-01-13 22:00:00,38.0,36.0,30.16,South,180,29.0,38.0,92,-99.99,,,-99.99,,2013-01-14 07:00:00,
2013-01-13 22:42:00,38.0,36.0,30.16,South,180,29.0,38.0,92,-99.99,,,-99.99,,2013-01-14 07:42:00,
2013-01-13 22:52:00,38.0,36.0,30.16,South,180,29.0,38.0,92,-99.99,,,-99.99,,2013-01-14 07:52:00,
2013-01-13 23:00:00,38.0,37.0,30.16,South,180,30.0,37.0,96,-99.99,,,-99.99,,2013-01-14 08:00:00,
2013-01-13 23:42:00,38.0,37.0,30.16,South,180,30.0,37.0,96,-99.99,,,-99.99,,2013-01-14 08:42:00,
2013-01-13 23:52:00,38.0,37.0,30.16,South,180,30.0,37.0,96,-99.99,,,-99.99,,2013-01-14 08:52:00,